createdAt,value
2019-04-25T00:02:24.434Z,3.49
2019-04-25T00:06:44.956Z,3.50
2019-04-25T00:12:43.527Z,3.49
2019-04-25T00:18:42.153Z,3.49
2019-04-25T00:24:37.496Z,3.49
2019-04-25T00:35:02.183Z,3.49
2019-04-25T00:38:57.551Z,3.48
2019-04-25T00:45:00.247Z,3.48
2019-04-25T00:49:02.814Z,3.48
2019-04-25T00:53:13.490Z,3.48
2019-04-25T00:59:11.795Z,3.47
2019-04-25T01:04:21.787Z,3.47
2019-04-25T01:08:25.304Z,3.47
2019-04-25T01:12:32.466Z,3.47
2019-04-25T01:16:41.986Z,3.47
2019-04-25T01:20:55.356Z,3.47
2019-04-25T01:25:00.358Z,3.47
2019-04-25T01:30:03.968Z,3.47
2019-04-25T01:36:03.431Z,3.47
2019-04-25T01:40:41.442Z,3.46
2019-04-25T01:45:29.494Z,3.47
2019-04-25T01:53:24.366Z,3.47
2019-04-25T01:57:34.231Z,3.46
2019-04-25T02:01:43.713Z,3.45
2019-04-25T02:05:45.163Z,3.46
2019-04-25T02:10:46.863Z,3.45
2019-04-25T02:15:29.597Z,3.47
2019-04-25T02:19:52.184Z,3.46
2019-04-25T02:24:08.079Z,3.46
2019-04-25T02:30:08.053Z,3.45
2019-04-25T02:35:09.242Z,3.45
2019-04-25T02:43:07.896Z,3.45
2019-04-25T02:50:58.413Z,3.45
2019-04-25T02:57:20.315Z,3.45
2019-04-25T03:01:25.952Z,3.45
2019-04-25T03:07:26.467Z,3.44
2019-04-25T03:11:24.381Z,3.43
2019-04-25T03:19:17.135Z,3.44
2019-04-25T03:25:35.508Z,3.43
2019-04-25T03:30:37.076Z,3.43
2019-04-25T03:35:36.132Z,3.43
2019-04-25T03:39:34.407Z,3.43
2019-04-25T03:45:36.200Z,3.43
2019-04-25T03:49:40.928Z,3.43
2019-04-25T03:54:49.120Z,3.42
2019-04-25T03:58:47.408Z,3.43
2019-04-25T04:02:50.917Z,3.43
2019-04-25T04:07:06.131Z,3.42
2019-04-25T04:17:06.735Z,3.42
2019-04-25T04:21:48.328Z,3.42
2019-04-25T04:26:16.880Z,3.42
2019-04-25T04:32:14.748Z,3.42
2019-04-25T04:40:04.787Z,3.42
2019-04-25T04:44:01.838Z,3.42
2019-04-25T04:48:10.225Z,3.42
2019-04-25T04:56:18.148Z,3.40
2019-04-25T05:00:18.672Z,3.41
2019-04-25T05:04:25.212Z,3.41
2019-04-25T05:09:04.196Z,3.42
2019-04-25T05:13:42.076Z,3.41
2019-04-25T05:21:37.267Z,3.41
2019-04-25T05:25:37.475Z,3.41
2019-04-25T05:29:46.984Z,3.41
2019-04-25T05:33:53.676Z,3.43
2019-04-25T05:38:03.449Z,3.41
2019-04-25T05:43:03.427Z,3.41
2019-04-25T05:47:29.161Z,3.41
2019-04-25T05:53:27.964Z,3.43
2019-04-25T05:59:20.219Z,3.41
2019-04-25T06:03:20.840Z,3.40
2019-04-25T06:07:34.328Z,3.42
2019-04-25T06:11:37.276Z,3.41
2019-04-25T06:16:16.195Z,3.41
2019-04-25T06:21:31.819Z,3.40
2019-04-25T06:26:36.572Z,3.40
2019-04-25T06:31:00.979Z,3.41
2019-04-25T06:35:11.454Z,3.40
2019-04-25T06:39:20.257Z,3.41
2019-04-25T06:43:34.002Z,3.41
2019-04-25T06:47:54.034Z,3.41
2019-04-25T06:52:53.763Z,3.41
2019-04-25T06:57:12.211Z,3.41
2019-04-25T07:02:16.768Z,3.42
2019-04-25T07:06:29.651Z,3.41
2019-04-25T07:10:40.083Z,3.39
2019-04-25T07:14:45.812Z,3.41
2019-04-25T07:18:51.172Z,3.41
2019-04-25T07:23:01.096Z,3.41
2019-04-25T07:27:23.561Z,3.41
2019-04-25T07:32:39.812Z,3.41
2019-04-25T07:37:17.267Z,3.41
2019-04-25T07:41:24.035Z,3.39
2019-04-25T07:45:28.687Z,3.41
2019-04-25T07:49:40.195Z,3.41
2019-04-25T07:53:45.592Z,3.40
2019-04-25T08:36:54.736Z,3.39
2019-04-25T08:41:04.134Z,3.39
2019-04-25T08:45:07.121Z,3.39
2019-04-25T08:49:10.723Z,3.39
2019-04-25T09:32:46.343Z,3.37
2019-04-25T09:36:47.251Z,3.37
2019-04-25T09:40:50.080Z,3.37
2019-04-25T09:44:54.719Z,3.38
2019-04-25T10:28:40.283Z,3.36
2019-04-25T11:11:57.335Z,3.27
2019-04-25T11:15:57.104Z,3.30
2019-04-25T12:38:20.508Z,3.16
2019-04-25T13:21:45.191Z,3.12
2019-04-25T13:25:47.035Z,3.11
2019-04-25T13:29:49.316Z,3.12
2019-04-25T13:34:53.603Z,3.13
2019-04-25T13:39:21.047Z,3.17
2019-04-25T14:22:30.359Z,3.04
2019-04-25T15:21:26.219Z,2.85
2019-04-25T15:25:29.651Z,2.88
2019-04-25T15:49:12.475Z,2.74
2019-04-25T15:53:10.639Z,2.78
2019-04-25T16:03:05.295Z,2.81
2019-04-25T16:18:57.555Z,2.73
2019-04-25T16:27:42.936Z,2.60
